Time;durP1;ratioP1;P1;durP2;ratioP2;P2;SDS_P1;SDS_P2;PMS_P1;PMS_P2;Temp;Humidity;BMP_temperature;BMP_pressure;BME280_temperature;BME280_humidity;BME280_pressure;Samples;Min_cycle;Max_cycle;Signal;HPM_P1;HPM_P2
2023/05/15 00:01:43;;;;;;;59.90;1.80;;;14.70;49.10;;;;;;5051232;28;20172;-68
2023/05/15 00:04:08;;;;;;;60.63;2.20;;;14.80;48.90;;;;;;5028315;28;20546;-68
2023/05/15 00:06:34;;;;;;;59.67;1.77;;;12.50;46.40;;;;;;5023545;28;20192;-68
2023/05/15 00:09:00;;;;;;;60.03;1.80;;;14.70;50.00;;;;;;5033232;28;20196;-69
2023/05/15 00:11:26;;;;;;;60.40;1.70;;;15.20;49.30;;;;;;5042355;28;20188;-68
2023/05/15 00:13:52;;;;;;;60.60;2.33;;;14.50;49.40;;;;;;5011394;28;20499;-67
2023/05/15 00:16:18;;;;;;;59.17;2.40;;;14.70;49.30;;;;;;5026116;28;20470;-67
2023/05/15 00:18:44;;;;;;;58.30;1.80;;;14.40;49.30;;;;;;5021560;28;20440;-68
2023/05/15 00:21:09;;;;;;;16.97;1.60;;;14.50;49.10;;;;;;5028816;28;20212;-67
2023/05/15 00:23:35;;;;;;;17.30;1.60;;;14.50;49.70;;;;;;5027441;28;20211;-68
2023/05/15 00:26:01;;;;;;;37.77;2.10;;;14.60;49.10;;;;;;5022100;28;20931;-67
2023/05/15 00:28:26;;;;;;;36.43;1.87;;;14.50;50.00;;;;;;5026424;28;20215;-67
2023/05/15 00:30:52;;;;;;;35.93;2.00;;;14.40;49.50;;;;;;5033236;28;20279;-67
2023/05/15 00:33:17;;;;;;;36.27;2.10;;;14.30;49.70;;;;;;5036693;28;20601;-70
2023/05/15 00:35:43;;;;;;;33.57;1.80;;;14.40;49.80;;;;;;5042819;28;20221;-67
2023/05/15 00:38:09;;;;;;;38.73;2.10;;;14.30;50.00;;;;;;5028542;28;20204;-67
2023/05/15 00:40:36;;;;;;;35.60;1.80;;;14.40;50.70;;;;;;5028247;28;20188;-67
2023/05/15 00:43:03;;;;;;;35.33;1.63;;;14.40;49.70;;;;;;5043574;28;20321;-68
2023/05/15 00:45:29;;;;;;;34.27;1.67;;;14.20;50.20;;;;;;5024840;28;20431;-67
2023/05/15 00:47:57;;;;;;;38.43;2.10;;;14.20;50.50;;;;;;5026521;28;20824;-66
2023/05/15 00:50:23;;;;;;;34.70;1.50;;;14.30;49.50;;;;;;5032804;28;20645;-67
2023/05/15 00:52:49;;;;;;;35.47;2.77;;;14.40;49.50;;;;;;5028299;28;20495;-67
2023/05/15 00:55:15;;;;;;;34.10;1.53;;;14.40;49.10;;;;;;5053855;28;20449;-67
2023/05/15 00:57:42;;;;;;;34.80;1.67;;;14.30;49.50;;;;;;5039552;28;20463;-67
2023/05/15 01:00:09;;;;;;;35.60;2.23;;;14.20;50.00;;;;;;5029562;28;20265;-69
2023/05/15 01:02:38;;;;;;;36.07;2.20;;;14.20;49.80;;;;;;5040234;28;20431;-67
2023/05/15 01:05:06;;;;;;;35.70;1.83;;;14.20;49.80;;;;;;5036492;28;20462;-67
2023/05/15 01:07:36;;;;;;;36.40;1.73;;;14.30;49.40;;;;;;5041624;28;20501;-69
2023/05/15 01:10:03;;;;;;;36.07;1.87;;;14.10;50.40;;;;;;5024087;28;20474;-68
2023/05/15 01:12:31;;;;;;;36.73;1.60;;;14.20;49.80;;;;;;5024975;28;20570;-68
2023/05/15 01:14:57;;;;;;;37.00;1.70;;;14.20;49.80;;;;;;5033386;28;20478;-68
2023/05/15 01:17:23;;;;;;;38.20;2.10;;;14.20;49.50;;;;;;5027976;28;20472;-68
2023/05/15 01:19:51;;;;;;;36.50;1.73;;;14.30;49.60;;;;;;5032085;28;20990;-68
2023/05/15 01:22:43;;;;;;;37.17;2.17;;;14.40;50.40;;;;;;5030197;28;20184;-68
2023/05/15 01:25:30;;;;;;;36.20;1.67;;;14.30;50.80;;;;;;5005223;28;20928;-68
2023/05/15 01:28:01;;;;;;;36.93;1.60;;;14.30;50.20;;;;;;5009026;28;21299;-68
2023/05/15 01:30:34;;;;;;;36.80;2.10;;;14.30;50.40;;;;;;5039504;28;20431;-68
2023/05/15 01:33:23;;;;;;;37.30;1.70;;;14.30;51.40;;;;;;5038206;28;20504;-68
2023/05/15 01:35:52;;;;;;;38.10;2.00;;;14.50;50.20;;;;;;5033510;28;20455;-68
2023/05/15 01:38:32;;;;;;;39.40;2.30;;;14.50;50.90;;;;;;5004611;28;21035;-68
2023/05/15 01:41:29;;;;;;;37.50;1.63;;;14.50;50.90;;;;;;5026989;28;20794;-68
2023/05/15 01:44:01;;;;;;;38.13;1.93;;;14.60;50.80;;;;;;5038555;28;20439;-68
2023/05/15 01:46:29;;;;;;;37.37;1.90;;;14.30;50.80;;;;;;5021915;28;20443;-68
2023/05/15 01:48:57;;;;;;;36.30;1.63;;;14.50;51.00;;;;;;5034285;28;20450;-68
2023/05/15 01:51:24;;;;;;;36.50;1.63;;;14.50;50.80;;;;;;5032941;28;20435;-68
2023/05/15 01:53:51;;;;;;;36.90;1.70;;;14.60;51.20;;;;;;5038730;28;20819;-68
2023/05/15 01:56:18;;;;;;;37.83;1.90;;;14.70;50.80;;;;;;5047858;28;20466;-68
2023/05/15 01:58:47;;;;;;;37.40;1.80;;;14.80;50.80;;;;;;5020853;28;20430;-69
2023/05/15 02:01:15;;;;;;;37.00;1.60;;;14.90;49.70;;;;;;5011052;28;20464;-68
2023/05/15 02:03:42;;;;;;;37.40;1.93;;;15.00;50.10;;;;;;5040573;28;20447;-68
2023/05/15 02:06:08;;;;;;;38.57;1.90;;;14.80;50.60;;;;;;5032689;28;20934;-68
2023/05/15 02:08:34;;;;;;;37.43;1.40;;;14.60;50.10;;;;;;5032928;28;20408;-68
2023/05/15 02:11:01;;;;;;;38.50;2.47;;;13.90;54.10;;;;;;5022569;28;20219;-68
2023/05/15 02:13:27;;;;;;;35.73;1.67;;;13.70;55.70;;;;;;5030116;28;20526;-68
2023/05/15 02:15:53;;;;;;;36.63;1.73;;;14.00;54.40;;;;;;5032642;28;20459;-68
2023/05/15 02:18:19;;;;;;;36.17;1.60;;;14.20;53.20;;;;;;5015065;28;20846;-68
2023/05/15 02:20:45;;;;;;;36.83;1.73;;;14.40;52.60;;;;;;5033021;28;20426;-68
2023/05/15 02:23:10;;;;;;;37.77;2.10;;;14.60;50.90;;;;;;5036872;28;20231;-68
2023/05/15 02:26:09;;;;;;;37.00;1.70;;;14.60;50.90;;;;;;5033161;28;20686;-68
2023/05/15 02:28:55;;;;;;;36.30;1.67;;;14.70;51.30;;;;;;5010827;28;20668;-68
2023/05/15 02:31:34;;;;;;;36.30;1.60;;;14.70;50.70;;;;;;5035126;28;20474;-68
2023/05/15 02:34:14;;;;;;;35.87;1.57;;;14.70;50.40;;;;;;5029249;28;20823;-68
2023/05/15 02:36:45;;;;;;;37.00;2.17;;;14.70;50.40;;;;;;5032099;28;20459;-68
2023/05/15 02:39:14;;;;;;;35.60;1.60;;;14.70;50.40;;;;;;5021373;28;20438;-68
2023/05/15 02:41:40;;;;;;;36.07;1.80;;;14.70;50.70;;;;;;5051536;28;20428;-68
2023/05/15 02:44:07;;;;;;;35.80;1.60;;;14.70;50.40;;;;;;5035119;28;21013;-68
2023/05/15 02:46:33;;;;;;;34.90;1.50;;;14.70;50.20;;;;;;5025289;28;20826;-68
2023/05/15 02:49:00;;;;;;;37.20;1.70;;;14.90;50.00;;;;;;5026377;28;20428;-68
2023/05/15 02:51:25;;;;;;;37.50;1.83;;;14.80;51.00;;;;;;5028942;28;20459;-68
2023/05/15 02:53:51;;;;;;;36.77;1.43;;;14.80;51.30;;;;;;5031308;28;20469;-68
2023/05/15 02:56:17;;;;;;;36.73;2.00;;;14.80;51.00;;;;;;5022864;28;20674;-68
2023/05/15 02:58:42;;;;;;;36.30;1.77;;;14.90;50.30;;;;;;5033040;28;20173;-68
2023/05/15 03:01:08;;;;;;;36.10;1.70;;;15.80;51.60;;;;;;5026576;28;20180;-68
2023/05/15 03:03:34;;;;;;;36.00;2.20;;;14.90;51.10;;;;;;5038853;28;20208;-68
2023/05/15 03:05:59;;;;;;;35.30;1.50;;;14.90;50.80;;;;;;5025893;28;20192;-68
2023/05/15 03:08:25;;;;;;;37.87;2.13;;;14.90;50.80;;;;;;5041690;28;20550;-68
2023/05/15 03:10:51;;;;;;;36.70;1.80;;;14.90;51.30;;;;;;5038774;28;20404;-68
2023/05/15 03:13:16;;;;;;;38.40;1.70;;;14.80;51.10;;;;;;5018756;28;20196;-68
2023/05/15 03:15:45;;;;;;;36.17;1.70;;;14.80;51.20;;;;;;5030141;28;20205;-68
2023/05/15 03:18:11;;;;;;;35.83;1.50;;;14.90;50.60;;;;;;5025038;28;20281;-68
2023/05/15 03:20:36;;;;;;;36.40;2.00;;;15.00;50.70;;;;;;5042609;28;20940;-68
2023/05/15 03:23:02;;;;;;;35.57;1.50;;;14.90;50.10;;;;;;5016658;28;20204;-68
2023/05/15 03:25:27;;;;;;;37.10;1.60;;;14.80;50.90;;;;;;5017503;28;20177;-68
2023/05/15 03:27:53;;;;;;;37.40;1.90;;;14.90;51.40;;;;;;5021544;28;20176;-68
2023/05/15 03:30:19;;;;;;;37.43;1.60;;;14.90;51.00;;;;;;5022011;28;20180;-68
2023/05/15 03:32:44;;;;;;;40.73;2.73;;;14.80;51.50;;;;;;5031651;28;20281;-68
2023/05/15 03:35:10;;;;;;;37.37;1.73;;;14.90;51.40;;;;;;5035662;28;20647;-68
2023/05/15 03:37:35;;;;;;;36.50;1.50;;;14.90;50.40;;;;;;5019587;28;20205;-68
2023/05/15 03:40:01;;;;;;;37.10;1.60;;;14.90;50.70;;;;;;5028060;28;20181;-68
2023/05/15 03:42:28;;;;;;;37.60;1.60;;;14.80;50.60;;;;;;5033114;28;20204;-68
2023/05/15 03:44:54;;;;;;;36.83;1.50;;;14.80;51.40;;;;;;5037585;28;20195;-68
2023/05/15 03:47:20;;;;;;;37.93;1.70;;;14.90;51.30;;;;;;5012478;28;20497;-68
2023/05/15 03:49:46;;;;;;;37.50;1.90;;;14.90;51.40;;;;;;5026611;28;20927;-68
2023/05/15 03:52:12;;;;;;;37.03;1.80;;;14.80;51.00;;;;;;5037198;28;20188;-68
2023/05/15 03:54:37;;;;;;;30.33;1.50;;;14.90;51.40;;;;;;5014971;28;20201;-68
2023/05/15 03:57:03;;;;;;;32.40;1.70;;;14.90;51.10;;;;;;5011747;28;20457;-68
2023/05/15 03:59:30;;;;;;;32.43;1.50;;;14.90;51.80;;;;;;5022167;28;20184;-69
2023/05/15 04:01:55;;;;;;;32.70;1.50;;;14.90;52.50;;;;;;5030326;28;20434;-68
2023/05/15 04:04:21;;;;;;;32.17;1.70;;;14.90;51.70;;;;;;5036036;28;20584;-68
2023/05/15 04:06:46;;;;;;;31.10;1.60;;;14.90;51.60;;;;;;5043841;28;20208;-68
2023/05/15 04:09:12;;;;;;;30.80;1.60;;;14.80;50.50;;;;;;5021879;28;20201;-68
2023/05/15 04:11:38;;;;;;;32.40;2.00;;;14.80;51.20;;;;;;5028866;28;20181;-68
2023/05/15 04:14:03;;;;;;;30.80;1.50;;;14.90;51.20;;;;;;5039416;28;20208;-68
2023/05/15 04:16:29;;;;;;;33.60;1.50;;;15.00;50.70;;;;;;5052934;28;20206;-68
2023/05/15 04:18:55;;;;;;;32.60;1.70;;;15.00;50.90;;;;;;5019977;28;20180;-68
2023/05/15 04:21:20;;;;;;;32.50;1.70;;;15.00;50.60;;;;;;5025976;28;20180;-68
2023/05/15 04:23:46;;;;;;;32.20;1.70;;;15.20;51.30;;;;;;5034305;28;20192;-68
2023/05/15 04:26:11;;;;;;;33.77;2.13;;;14.80;53.00;;;;;;5034812;28;20176;-68
2023/05/15 04:28:37;;;;;;;32.23;1.80;;;15.10;52.10;;;;;;5033530;28;20216;-68
2023/05/15 04:31:03;;;;;;;31.50;1.70;;;15.20;51.60;;;;;;5018255;28;20196;-68
2023/05/15 04:33:28;;;;;;;28.27;1.80;;;15.30;51.00;;;;;;5031667;28;20216;-68
2023/05/15 04:35:54;;;;;;;27.87;1.83;;;15.30;50.70;;;;;;5032770;28;20670;-68
2023/05/15 04:38:20;;;;;;;27.13;1.50;;;15.30;51.30;;;;;;5027669;28;20200;-67
2023/05/15 04:40:45;;;;;;;25.17;1.80;;;15.30;51.70;;;;;;5028797;28;20183;-67
2023/05/15 04:43:11;;;;;;;27.40;1.97;;;15.40;50.90;;;;;;5031628;28;20868;-68
2023/05/15 04:45:37;;;;;;;27.63;1.80;;;15.40;51.30;;;;;;5034848;28;20324;-68
2023/05/15 04:48:03;;;;;;;46.63;2.00;;;15.40;50.60;;;;;;5031597;28;20535;-68
2023/05/15 04:50:28;;;;;;;86.87;2.13;;;15.40;50.80;;;;;;5034954;28;20661;-68
2023/05/15 04:52:54;;;;;;;117.30;3.63;;;15.50;50.50;;;;;;5031625;28;20585;-68
2023/05/15 04:55:19;;;;;;;1.40;1.33;;;15.50;50.90;;;;;;5034323;28;20186;-68
2023/05/15 04:57:46;;;;;;;3.20;1.40;;;15.50;51.30;;;;;;5037268;28;20188;-68
2023/05/15 05:00:13;;;;;;;89.77;4.07;;;15.70;51.00;;;;;;5045886;28;20212;-68
2023/05/15 05:02:39;;;;;;;5.90;1.77;;;15.70;51.20;;;;;;5027332;28;20436;-68
2023/05/15 05:05:06;;;;;;;13.23;1.50;;;15.70;51.30;;;;;;5040448;28;20791;-68
2023/05/15 05:07:32;;;;;;;76.23;2.70;;;15.90;50.80;;;;;;5049150;28;20185;-68
2023/05/15 05:09:58;;;;;;;123.47;3.87;;;15.80;51.40;;;;;;5023757;28;20446;-68
2023/05/15 05:12:23;;;;;;;123.13;3.90;;;15.90;51.30;;;;;;5010021;28;20439;-69
2023/05/15 05:14:49;;;;;;;114.10;3.93;;;16.00;51.00;;;;;;5022388;28;20185;-69
2023/05/15 05:17:15;;;;;;;88.90;2.00;;;16.00;51.00;;;;;;5033906;28;20217;-68
2023/05/15 05:19:40;;;;;;;90.47;2.37;;;16.20;50.40;;;;;;5020033;28;20652;-69
2023/05/15 05:22:06;;;;;;;91.03;2.20;;;16.20;49.90;;;;;;5026829;28;20866;-69
2023/05/15 05:24:34;;;;;;;88.50;2.40;;;16.30;50.80;;;;;;5031702;28;20202;-69
2023/05/15 05:27:00;;;;;;;85.77;2.07;;;16.20;50.10;;;;;;5033890;28;20178;-68
2023/05/15 05:29:26;;;;;;;87.30;2.50;;;16.20;50.60;;;;;;5029047;28;20456;-69
2023/05/15 05:31:52;;;;;;;86.90;2.20;;;16.40;51.10;;;;;;5030557;28;20646;-68
2023/05/15 05:34:18;;;;;;;87.10;2.10;;;16.50;50.70;;;;;;5029992;28;20237;-69
2023/05/15 05:36:44;;;;;;;85.80;1.90;;;16.40;51.30;;;;;;5026290;28;20468;-69
2023/05/15 05:39:10;;;;;;;85.77;2.10;;;16.50;49.90;;;;;;5025379;28;21049;-69
2023/05/15 05:41:35;;;;;;;84.50;1.80;;;16.60;50.00;;;;;;5018072;28;20177;-68
2023/05/15 05:44:01;;;;;;;83.70;2.30;;;16.60;50.60;;;;;;5040713;28;20207;-67
2023/05/15 05:46:27;;;;;;;84.80;1.90;;;16.70;50.40;;;;;;5026902;28;20195;-69
2023/05/15 05:48:52;;;;;;;85.43;2.60;;;16.70;49.90;;;;;;5025823;28;20188;-68
2023/05/15 05:51:18;;;;;;;83.97;2.00;;;16.80;50.00;;;;;;5012656;28;20192;-68
2023/05/15 05:53:43;;;;;;;83.77;2.03;;;16.80;50.20;;;;;;5014097;28;20208;-67
2023/05/15 05:56:09;;;;;;;84.70;2.13;;;16.80;49.00;;;;;;5029284;28;20204;-68
2023/05/15 05:58:35;;;;;;;84.30;2.10;;;17.00;47.40;;;;;;5028776;28;20648;-68
2023/05/15 06:01:00;;;;;;;86.87;2.10;;;17.10;47.10;;;;;;5031586;28;20189;-68
2023/05/15 06:03:27;;;;;;;86.87;2.10;;;17.10;46.40;;;;;;5035665;28;20547;-69
2023/05/15 06:05:52;;;;;;;88.30;2.40;;;17.10;47.40;;;;;;5030049;28;20196;-68
2023/05/15 06:08:19;;;;;;;84.60;2.20;;;17.10;48.20;;;;;;5033072;28;20419;-68
2023/05/15 06:10:44;;;;;;;83.27;1.87;;;17.10;47.90;;;;;;5024367;28;20200;-68
2023/05/15 06:13:10;;;;;;;83.67;2.27;;;16.80;47.10;;;;;;5024307;28;20462;-68
2023/05/15 06:15:36;;;;;;;84.57;2.10;;;16.90;47.80;;;;;;5036298;28;20176;-67
2023/05/15 06:18:02;;;;;;;83.87;1.90;;;16.80;46.70;;;;;;5012219;28;20427;-69
2023/05/15 06:20:28;;;;;;;86.17;2.10;;;16.50;46.70;;;;;;5033445;28;20188;-68
2023/05/15 06:22:53;;;;;;;86.20;2.07;;;16.60;48.20;;;;;;5027994;28;20254;-68
2023/05/15 06:25:19;;;;;;;86.73;2.60;;;16.50;47.50;;;;;;5022476;28;20171;-68
2023/05/15 06:27:46;;;;;;;86.17;2.20;;;15.70;50.60;;;;;;5006132;28;20550;-68
2023/05/15 06:30:12;;;;;;;84.23;2.20;;;16.30;51.70;;;;;;5015658;28;20425;-69
2023/05/15 06:32:39;;;;;;;82.83;2.53;;;16.80;50.50;;;;;;5000639;28;20510;-69
2023/05/15 06:35:05;;;;;;;82.40;2.10;;;16.60;50.50;;;;;;5038618;28;20443;-68
2023/05/15 06:37:30;;;;;;;81.13;2.20;;;16.60;50.50;;;;;;5040104;28;20837;-68
2023/05/15 06:39:56;;;;;;;80.20;2.00;;;16.80;48.90;;;;;;5029238;28;20443;-69
2023/05/15 06:42:22;;;;;;;83.07;2.17;;;17.10;48.20;;;;;;5034302;28;20618;-68
2023/05/15 06:44:48;;;;;;;83.20;2.27;;;17.20;48.50;;;;;;5021325;28;20188;-68
2023/05/15 06:47:14;;;;;;;81.50;2.10;;;17.30;48.50;;;;;;5032171;28;20499;-69
2023/05/15 06:49:40;;;;;;;77.17;1.90;;;17.60;45.90;;;;;;5020817;28;20546;-69
2023/05/15 06:52:05;;;;;;;77.60;1.97;;;17.60;45.70;;;;;;5038945;28;20194;-69
2023/05/15 06:54:31;;;;;;;74.70;1.90;;;17.70;44.90;;;;;;5051354;28;20607;-74
2023/05/15 06:56:57;;;;;;;74.27;2.13;;;17.80;45.50;;;;;;5035021;28;20547;-74
2023/05/15 06:59:22;;;;;;;72.97;2.17;;;17.30;46.30;;;;;;5023952;28;20177;-75
2023/05/15 07:01:49;;;;;;;76.40;1.80;;;17.20;45.60;;;;;;5031463;28;20597;-75
2023/05/15 07:04:15;;;;;;;77.90;2.13;;;17.40;45.00;;;;;;5015440;28;20202;-74
2023/05/15 07:06:42;;;;;;;76.43;2.07;;;17.70;44.30;;;;;;5026368;28;20439;-71
2023/05/15 07:09:08;;;;;;;68.47;2.20;;;17.80;42.80;;;;;;5027782;28;20432;-68
2023/05/15 07:11:36;;;;;;;65.17;2.13;;;17.20;44.60;;;;;;5038942;28;20465;-70
2023/05/15 07:14:02;;;;;;;62.20;2.10;;;17.20;43.80;;;;;;5028969;28;20454;-69
2023/05/15 07:16:28;;;;;;;61.33;2.10;;;17.10;45.10;;;;;;5033190;28;20559;-73
2023/05/15 07:18:54;;;;;;;69.07;1.87;;;17.10;45.20;;;;;;5028189;28;20575;-70
2023/05/15 07:21:19;;;;;;;70.10;1.90;;;17.30;44.10;;;;;;5020351;28;20184;-70
2023/05/15 07:23:45;;;;;;;64.27;1.73;;;16.60;46.40;;;;;;5037334;28;20212;-70
2023/05/15 07:26:13;;;;;;;62.87;1.93;;;16.50;45.50;;;;;;5049042;28;20206;-70
2023/05/15 07:28:39;;;;;;;62.13;2.23;;;16.30;47.90;;;;;;5043252;28;20514;-71
2023/05/15 07:31:05;;;;;;;59.50;1.70;;;15.90;48.40;;;;;;5007859;28;21149;-70
2023/05/15 07:33:31;;;;;;;59.47;2.20;;;16.10;46.90;;;;;;5003137;28;20446;-70
2023/05/15 07:35:57;;;;;;;60.07;2.40;;;16.20;46.90;;;;;;5022360;28;20555;-70
2023/05/15 07:38:22;;;;;;;49.87;2.03;;;16.80;46.20;;;;;;5009056;28;20592;-69
2023/05/15 07:40:48;;;;;;;42.47;1.60;;;17.40;43.80;;;;;;5037757;28;20253;-70
2023/05/15 07:43:14;;;;;;;37.40;1.70;;;17.60;42.40;;;;;;5022492;28;20220;-70
2023/05/15 07:45:39;;;;;;;39.27;1.90;;;18.00;40.40;;;;;;5018004;28;20204;-70
2023/05/15 07:48:16;;;;;;;35.67;2.03;;;18.20;40.00;;;;;;5030110;28;20691;-70
2023/05/15 07:50:43;;;;;;;32.10;1.80;;;18.40;40.60;;;;;;5022900;28;20199;-69
2023/05/15 07:53:10;;;;;;;32.50;1.70;;;18.20;39.40;;;;;;5059062;23;20502;-74
2023/05/15 07:55:35;;;;;;;27.27;1.63;;;18.30;42.10;;;;;;5038520;28;20456;-73
2023/05/15 07:58:01;;;;;;;42.00;2.00;;;18.50;40.20;;;;;;5050391;28;21399;-73
2023/05/15 08:00:26;;;;;;;36.87;1.67;;;18.60;40.20;;;;;;5033355;28;20181;-73
2023/05/15 08:02:52;;;;;;;27.70;1.80;;;17.70;41.50;;;;;;5016228;28;20205;-73
2023/05/15 08:05:18;;;;;;;30.80;2.00;;;18.00;41.00;;;;;;5002941;28;20192;-73
2023/05/15 08:07:44;;;;;;;26.10;1.83;;;18.30;40.10;;;;;;5030184;28;20256;-72
2023/05/15 08:10:10;;;;;;;34.53;1.90;;;18.50;40.40;;;;;;5009435;28;20271;-75
2023/05/15 08:12:35;;;;;;;24.40;2.03;;;18.10;39.50;;;;;;5013531;28;20455;-72
2023/05/15 08:15:01;;;;;;;28.30;1.80;;;18.20;40.70;;;;;;5013436;28;20428;-74
2023/05/15 08:17:27;;;;;;;30.80;1.90;;;17.80;41.10;;;;;;5022205;28;20692;-72
2023/05/15 08:19:53;;;;;;;24.80;1.90;;;18.30;41.70;;;;;;5013416;28;20217;-76
2023/05/15 08:22:18;;;;;;;31.23;2.17;;;18.10;40.60;;;;;;5014248;28;20577;-71
2023/05/15 08:24:44;;;;;;;22.80;1.97;;;17.80;43.00;;;;;;5013244;28;20455;-72
2023/05/15 08:27:10;;;;;;;20.30;1.70;;;18.10;41.90;;;;;;5011682;28;20229;-72
2023/05/15 08:29:35;;;;;;;19.17;1.70;;;18.50;42.60;;;;;;5023089;28;20179;-74
2023/05/15 08:32:02;;;;;;;34.60;1.77;;;18.90;39.80;;;;;;5014899;28;20674;-75
2023/05/15 08:34:28;;;;;;;38.33;1.83;;;18.70;38.90;;;;;;5014557;28;20171;-75
2023/05/15 08:36:54;;;;;;;38.47;1.77;;;19.20;36.70;;;;;;5018417;28;20530;-73
2023/05/15 08:39:20;;;;;;;33.03;2.10;;;19.30;37.60;;;;;;5020467;28;20181;-77
2023/05/15 08:41:57;;;;;;;26.53;1.67;;;19.90;36.90;;;;;;5015568;28;21208;-76
2023/05/15 08:44:23;;;;;;;23.73;1.90;;;18.10;33.90;;;;;;5014655;28;20148;-76
2023/05/15 08:46:48;;;;;;;23.73;1.70;;;20.60;35.60;;;;;;5012119;28;20944;-76
2023/05/15 08:49:26;;;;;;;30.70;2.10;;;20.60;34.40;;;;;;4995134;28;20448;-76
2023/05/15 08:51:52;;;;;;;24.97;1.80;;;19.70;35.90;;;;;;5014704;28;20244;-74
2023/05/15 08:54:18;;;;;;;27.20;1.90;;;19.00;37.70;;;;;;5014382;28;20420;-76
2023/05/15 08:56:44;;;;;;;26.47;1.80;;;19.30;37.20;;;;;;5012621;28;20466;-75
2023/05/15 08:59:10;;;;;;;19.80;2.00;;;19.70;36.70;;;;;;5009138;28;20435;-75
2023/05/15 09:01:36;;;;;;;16.73;1.50;;;19.40;35.90;;;;;;5016737;28;20202;-76
2023/05/15 09:04:03;;;;;;;17.47;1.67;;;19.50;35.50;;;;;;5039793;28;20166;-75
2023/05/15 09:06:29;;;;;;;15.20;1.47;;;19.50;37.70;;;;;;5023256;28;20808;-74
2023/05/15 09:08:55;;;;;;;14.60;1.97;;;19.20;36.50;;;;;;5013783;28;20431;-75
2023/05/15 09:11:23;;;;;;;25.40;1.90;;;19.10;36.40;;;;;;5014212;28;20408;-75
2023/05/15 09:13:49;;;;;;;22.40;1.90;;;19.60;35.30;;;;;;5015018;28;20439;-73
2023/05/15 09:16:15;;;;;;;16.03;1.50;;;19.90;34.40;;;;;;5011799;28;20466;-74
2023/05/15 09:18:41;;;;;;;16.53;1.70;;;20.20;35.30;;;;;;5012340;28;20447;-74
2023/05/15 09:21:26;;;;;;;18.23;1.60;;;19.50;35.80;;;;;;5014267;28;20541;-75
2023/05/15 09:24:22;;;;;;;15.13;1.70;;;19.20;34.70;;;;;;5010887;28;20182;-75
2023/05/15 09:27:05;;;;;;;14.27;1.60;;;19.10;36.10;;;;;;5010166;28;20475;-74
2023/05/15 09:29:32;;;;;;;12.07;1.53;;;19.50;35.90;;;;;;5015659;28;20429;-74
2023/05/15 09:32:10;;;;;;;14.37;2.33;;;20.50;36.50;;;;;;5012165;28;20461;-74
2023/05/15 09:34:39;;;;;;;11.60;1.73;;;20.20;34.50;;;;;;5009794;28;20549;-72
2023/05/15 09:37:06;;;;;;;18.43;2.40;;;19.50;34.50;;;;;;5011151;28;20883;-73
2023/05/15 09:39:33;;;;;;;17.77;1.90;;;18.80;36.80;;;;;;5006572;28;20468;-73
2023/05/15 09:42:09;;;;;;;16.33;1.73;;;19.10;35.10;;;;;;5017319;28;20465;-72
2023/05/15 09:44:39;;;;;;;40.67;6.53;;;19.20;33.70;;;;;;5012822;28;20439;-75
2023/05/15 09:47:05;;;;;;;39.67;2.17;;;19.50;33.30;;;;;;5016857;28;20455;-74
2023/05/15 09:49:31;;;;;;;41.53;2.50;;;20.40;33.60;;;;;;5021756;28;20437;-74
2023/05/15 09:51:58;;;;;;;38.87;1.80;;;21.40;32.70;;;;;;5009445;28;20593;-74
2023/05/15 09:54:26;;;;;;;47.87;2.07;;;22.00;31.20;;;;;;5020046;28;20445;-74
2023/05/15 09:56:52;;;;;;;50.50;2.27;;;22.70;30.00;;;;;;5007930;28;20494;-74
2023/05/15 09:59:20;;;;;;;47.70;2.33;;;23.10;30.10;;;;;;4993890;28;20428;-74
2023/05/15 10:01:53;;;;;;;52.97;1.80;;;23.00;27.60;;;;;;5008260;28;20971;-74
2023/05/15 10:04:18;;;;;;;57.60;2.20;;;22.70;28.30;;;;;;5010468;28;20855;-75
2023/05/15 10:06:47;;;;;;;51.70;2.20;;;23.70;30.00;;;;;;5009169;28;20552;-75
2023/05/15 10:09:14;;;;;;;56.60;2.40;;;21.50;29.70;;;;;;5010473;28;20200;-75
2023/05/15 10:11:42;;;;;;;55.80;2.33;;;21.30;27.60;;;;;;5016168;28;20464;-74
2023/05/15 10:14:10;;;;;;;53.97;1.77;;;19.90;29.30;;;;;;5008735;28;20449;-77
2023/05/15 10:16:37;;;;;;;51.97;2.20;;;19.40;31.80;;;;;;4993951;28;20897;-73
2023/05/15 10:19:08;;;;;;;54.77;2.43;;;19.00;34.60;;;;;;5007730;28;20428;-74
2023/05/15 10:21:36;;;;;;;60.20;2.13;;;18.80;37.50;;;;;;5011593;28;20436;-73
2023/05/15 10:24:03;;;;;;;53.50;2.13;;;18.50;36.80;;;;;;5015541;28;20437;-74
2023/05/15 10:26:41;;;;;;;53.47;2.00;;;18.90;36.60;;;;;;5007366;28;20428;-74
2023/05/15 10:29:11;;;;;;;51.90;2.27;;;18.90;34.30;;;;;;5009007;28;20930;-74
2023/05/15 10:31:38;;;;;;;50.57;2.20;;;19.30;35.10;;;;;;5007714;28;20450;-75
2023/05/15 10:34:05;;;;;;;47.97;1.73;;;19.30;33.10;;;;;;5006721;28;20472;-75
2023/05/15 10:36:32;;;;;;;46.70;1.70;;;18.50;29.00;;;;;;5009898;28;20470;-75
2023/05/15 10:39:00;;;;;;;46.77;2.20;;;18.50;28.70;;;;;;5006260;28;20440;-74
2023/05/15 10:41:28;;;;;;;44.27;1.90;;;18.50;31.90;;;;;;5008961;28;20939;-74
2023/05/15 10:43:56;;;;;;;43.80;1.90;;;19.50;33.10;;;;;;5013008;28;20446;-74
2023/05/15 10:46:22;;;;;;;44.40;2.00;;;19.80;32.10;;;;;;5006849;28;20803;-74
2023/05/15 10:48:49;;;;;;;42.50;1.70;;;19.80;33.80;;;;;;4995643;28;21145;-74
2023/05/15 10:51:23;;;;;;;41.87;1.77;;;19.80;35.20;;;;;;5009397;28;20497;-75
2023/05/15 10:53:50;;;;;;;42.70;1.67;;;20.20;36.50;;;;;;5007482;28;20460;-74
2023/05/15 10:56:16;;;;;;;41.10;1.70;;;20.20;37.40;;;;;;5011449;28;20509;-74
2023/05/15 10:58:49;;;;;;;39.27;1.60;;;20.30;39.90;;;;;;4994126;28;20429;-75
2023/05/15 11:01:31;;;;;;;38.23;1.70;;;20.20;40.40;;;;;;5008904;28;20431;-75
2023/05/15 11:04:06;;;;;;;35.50;1.83;;;20.20;41.80;;;;;;5007251;28;20428;-75
2023/05/15 11:06:32;;;;;;;33.03;1.80;;;20.50;39.40;;;;;;5007677;28;20427;-76
2023/05/15 11:09:21;;;;;;;32.73;1.70;;;20.50;40.50;;;;;;5013235;28;20431;-75
2023/05/15 11:11:56;;;;;;;31.60;1.70;;;20.70;40.40;;;;;;5007440;28;20524;-76
2023/05/15 11:14:26;;;;;;;30.30;1.70;;;21.20;36.30;;;;;;5018100;28;20458;-73
2023/05/15 11:16:51;;;;;;;35.87;1.60;;;21.50;37.60;;;;;;5008014;28;20456;-76
2023/05/15 11:19:49;;;;;;;100.57;2.57;;;21.90;32.70;;;;;;5008971;28;20448;-77
2023/05/15 11:22:17;;;;;;;96.80;2.87;;;22.50;35.60;;;;;;5008628;28;20196;-76
2023/05/15 11:25:14;;;;;;;94.73;2.30;;;23.30;36.10;;;;;;5006389;28;20424;-73
2023/05/15 11:27:42;;;;;;;93.37;2.70;;;24.00;33.40;;;;;;5013983;28;20492;-73
2023/05/15 11:30:19;;;;;;;88.80;2.43;;;25.10;31.10;;;;;;5004577;28;21198;-73
2023/05/15 11:33:00;;;;;;;116.67;14.73;;;25.90;29.40;;;;;;5003200;28;20455;-73
2023/05/15 11:35:41;;;;;;;92.00;2.00;;;26.10;28.20;;;;;;5011339;28;20978;-73
2023/05/15 11:38:23;;;;;;;35.50;2.07;;;27.20;21.20;;;;;;5024470;28;20442;-73
2023/05/15 11:40:57;;;;;;;1.93;1.13;;;28.50;20.90;;;;;;5007971;28;20424;-73
2023/05/15 11:43:34;;;;;;;1.90;1.30;;;29.20;18.10;;;;;;5012181;28;20944;-74
2023/05/15 11:46:11;;;;;;;2.00;1.20;;;29.40;20.60;;;;;;5009247;28;20442;-74
2023/05/15 11:48:48;;;;;;;2.50;1.97;;;28.90;20.00;;;;;;5008839;28;21016;-74
2023/05/15 11:51:25;;;;;;;2.33;1.30;;;29.10;20.40;;;;;;5008913;28;20431;-74
2023/05/15 11:53:53;;;;;;;5.13;4.07;;;29.30;16.10;;;;;;5005032;28;20439;-74
2023/05/15 11:56:21;;;;;;;1.47;1.40;;;29.50;17.20;;;;;;5005531;28;20873;-74
2023/05/15 11:58:53;;;;;;;1.70;1.70;;;26.60;19.50;;;;;;5018258;28;20442;-73
2023/05/15 12:01:18;;;;;;;1.50;1.40;;;25.10;21.90;;;;;;4993987;28;20444;-73
2023/05/15 12:03:47;;;;;;;1.70;1.40;;;23.40;24.60;;;;;;5010083;28;20436;-73
2023/05/15 12:06:13;;;;;;;2.80;1.53;;;21.60;27.10;;;;;;5008638;28;20527;-73
2023/05/15 12:08:40;;;;;;;3.97;2.07;;;21.30;30.40;;;;;;5007342;28;20446;-72
2023/05/15 12:11:07;;;;;;;4.37;1.83;;;22.10;30.40;;;;;;5016253;28;20260;-72
2023/05/15 12:13:33;;;;;;;4.53;1.63;;;21.50;27.60;;;;;;4995180;28;21387;-73
2023/05/15 12:16:02;;;;;;;4.73;1.87;;;20.60;29.80;;;;;;5010530;28;21040;-72
2023/05/15 12:18:28;;;;;;;5.37;1.80;;;20.40;30.90;;;;;;4991078;28;20436;-73
2023/05/15 12:20:54;;;;;;;5.97;1.60;;;20.80;29.70;;;;;;5005230;28;20436;-72
2023/05/15 12:23:21;;;;;;;6.13;1.53;;;20.40;29.60;;;;;;5005113;28;20459;-73
2023/05/15 12:25:49;;;;;;;4.57;1.60;;;20.70;29.60;;;;;;5011389;28;20176;-73
2023/05/15 12:28:15;;;;;;;4.70;1.40;;;21.90;29.00;;;;;;5011641;28;20431;-73
2023/05/15 12:30:42;;;;;;;5.70;1.50;;;23.00;27.50;;;;;;5010474;28;20435;-73
2023/05/15 12:33:09;;;;;;;7.00;1.70;;;22.90;26.80;;;;;;5022373;28;20427;-71
2023/05/15 12:35:40;;;;;;;6.87;1.63;;;22.20;27.30;;;;;;5013288;28;20524;-71
2023/05/15 12:38:06;;;;;;;9.20;1.60;;;22.20;27.40;;;;;;5011452;28;20438;-74
2023/05/15 12:40:35;;;;;;;7.43;1.67;;;23.10;26.50;;;;;;5011963;28;20920;-71
2023/05/15 12:43:07;;;;;;;9.70;1.57;;;22.50;27.30;;;;;;5010482;28;20836;-72